Time;durP1;ratioP1;P1;durP2;ratioP2;P2;SDS_P1;SDS_P2;PMS_P1;PMS_P2;Temp;Humidity;BMP_temperature;BMP_pressure;BME280_temperature;BME280_humidity;BME280_pressure;Samples;Min_cycle;Max_cycle;Signal;HPM_P1;HPM_P2
2023/09/09 00:01:16;;;;;;;1.75;1.15;;;;;;;16.20;84.21;100893.47;4988131;28;20043;-75
2023/09/09 00:03:42;;;;;;;0.90;0.85;;;;;;;16.20;85.29;100897.84;4988924;28;20053;-73
2023/09/09 00:06:11;;;;;;;4.85;1.10;;;;;;;16.57;88.62;100951.13;4985540;28;20046;-75
2023/09/09 00:08:37;;;;;;;1.15;0.95;;;;;;;16.64;86.01;100949.25;4984253;28;20405;-76
2023/09/09 00:11:03;;;;;;;0.85;0.73;;;;;;;16.31;79.44;100861.50;4979345;28;20447;-74
2023/09/09 00:13:29;;;;;;;0.57;0.55;;;;;;;16.85;76.04;100979.88;4988325;28;20047;-75
2023/09/09 00:15:57;;;;;;;1.67;1.33;;;;;;;16.38;70.26;100954.97;4988648;28;20046;-76
2023/09/09 00:18:22;;;;;;;0.20;0.20;;;;;;;16.44;68.53;100954.91;4986637;28;20122;-76
2023/09/09 00:20:48;;;;;;;0.32;0.32;;;;;;;16.87;67.36;100978.06;4986275;28;20038;-75
2023/09/09 00:23:13;;;;;;;1.27;1.17;;;;;;;16.77;66.06;100949.94;4984395;28;20787;-75
2023/09/09 00:25:41;;;;;;;2.40;0.70;;;;;;;16.70;77.42;100959.78;4984253;28;20068;-74
2023/09/09 00:28:10;;;;;;;0.65;0.50;;;;;;;16.79;79.57;100980.00;5018729;28;20457;-73
2023/09/09 00:30:36;;;;;;;0.20;0.20;;;;;;;16.77;74.46;100974.66;4985752;28;20046;-77
2023/09/09 00:33:02;;;;;;;2.28;1.20;;;;;;;16.71;71.44;100950.03;4986915;28;20483;-76
2023/09/09 00:35:28;;;;;;;0.85;0.75;;;;;;;16.73;69.74;100948.25;4988108;28;20452;-75
2023/09/09 00:37:54;;;;;;;0.98;0.77;;;;;;;16.71;69.39;100956.22;4988709;28;20117;-75
2023/09/09 00:40:20;;;;;;;1.83;1.25;;;;;;;16.25;71.25;100875.72;4986222;28;20054;-74
2023/09/09 00:42:45;;;;;;;2.25;1.65;;;;;;;16.46;80.33;100932.78;4987676;28;20620;-77
2023/09/09 00:45:11;;;;;;;3.40;0.80;;;;;;;16.76;77.37;100985.28;4989298;28;20077;-73
2023/09/09 00:47:37;;;;;;;1.75;0.75;;;;;;;16.63;77.93;100955.47;4996096;28;20062;-82
2023/09/09 00:50:05;;;;;;;0.55;0.55;;;;;;;16.13;80.93;100875.94;4991900;28;20031;-73
2023/09/09 00:52:31;;;;;;;6.07;1.05;;;;;;;16.10;79.24;100870.66;4982367;28;20050;-76
2023/09/09 00:54:58;;;;;;;0.28;0.28;;;;;;;15.97;88.18;100887.66;4982261;28;20150;-75
2023/09/09 00:57:27;;;;;;;1.55;0.68;;;;;;;15.83;90.61;100845.50;4977133;28;21249;-76
2023/09/09 00:59:52;;;;;;;0.28;0.28;;;;;;;15.74;90.70;100825.31;4986657;28;20422;-75
2023/09/09 01:02:18;;;;;;;0.57;0.52;;;;;;;16.58;90.16;100966.16;4987303;28;20045;-75
2023/09/09 01:04:43;;;;;;;0.52;0.50;;;;;;;16.64;89.49;100962.50;4983052;28;20410;-76
2023/09/09 01:07:09;;;;;;;0.85;0.60;;;;;;;16.11;89.08;100863.56;4984182;28;20093;-77
2023/09/09 01:09:36;;;;;;;0.63;0.63;;;;;;;16.44;89.39;100929.28;4982762;28;20047;-76
2023/09/09 01:12:03;;;;;;;1.65;1.55;;;;;;;16.09;90.31;100863.63;4983372;28;20049;-76
2023/09/09 01:14:28;;;;;;;0.40;0.40;;;;;;;15.87;91.51;100873.63;4984317;28;20453;-76
2023/09/09 01:16:55;;;;;;;0.57;0.57;;;;;;;16.42;89.56;100943.44;4985020;28;20034;-78
2023/09/09 01:19:24;;;;;;;0.50;0.45;;;;;;;15.87;89.23;100868.34;4981596;28;20502;-80
2023/09/09 01:21:51;;;;;;;0.60;0.60;;;;;;;15.98;88.05;100879.66;4980252;28;20046;-74
2023/09/09 01:24:17;;;;;;;1.08;0.80;;;;;;;16.34;88.36;100938.28;4986221;28;20056;-74
2023/09/09 01:26:45;;;;;;;0.30;0.30;;;;;;;15.88;87.46;100866.59;4979994;28;20050;-76
2023/09/09 01:29:11;;;;;;;0.60;0.40;;;;;;;15.87;88.35;100880.72;4984722;28;20105;-77
2023/09/09 01:31:38;;;;;;;8.88;2.10;;;;;;;16.26;88.51;100940.16;4986026;28;21501;-76
2023/09/09 01:34:03;;;;;;;0.82;0.73;;;;;;;16.33;90.34;100948.88;4984535;28;20867;-75
2023/09/09 01:36:29;;;;;;;1.30;0.85;;;;;;;16.29;95.84;100958.63;4982899;28;20050;-74
2023/09/09 01:38:54;;;;;;;1.45;1.35;;;;;;;15.69;100.00;100874.75;4983503;28;20877;-74
2023/09/09 01:41:20;;;;;;;1.10;1.00;;;;;;;15.51;100.00;100846.78;4988181;28;20030;-73
2023/09/09 01:43:45;;;;;;;1.20;1.10;;;;;;;15.65;100.00;100861.59;4984039;28;20061;-74
2023/09/09 01:46:11;;;;;;;0.63;0.57;;;;;;;15.74;99.94;100851.78;4983729;28;20537;-75
2023/09/09 01:48:37;;;;;;;0.35;0.35;;;;;;;16.12;96.84;100902.41;4983377;28;20439;-75
2023/09/09 01:51:02;;;;;;;0.55;0.50;;;;;;;16.24;95.12;100926.91;4982972;28;20038;-74
2023/09/09 01:53:28;;;;;;;1.83;1.73;;;;;;;16.29;95.13;100928.63;5015729;28;20406;-74
2023/09/09 01:55:56;;;;;;;2.33;1.88;;;;;;;16.10;100.00;100928.91;4987495;28;20113;-75
2023/09/09 01:58:21;;;;;;;0.28;0.28;;;;;;;14.97;100.00;100762.00;4985831;28;20054;-75
2023/09/09 02:00:48;;;;;;;2.33;2.13;;;;;;;15.46;100.00;100822.16;4981960;28;20426;-75
2023/09/09 02:03:13;;;;;;;0.73;0.73;;;;;;;15.45;100.00;100849.47;4981989;28;20077;-75
2023/09/09 02:05:39;;;;;;;0.77;0.73;;;;;;;15.29;100.00;100848.84;4986830;28;20490;-75
2023/09/09 02:08:04;;;;;;;1.88;1.48;;;;;;;15.93;100.00;100950.31;4985291;28;20059;-75
2023/09/09 02:10:30;;;;;;;0.55;0.55;;;;;;;15.93;100.00;100944.16;4981414;28;20052;-74
2023/09/09 02:12:55;;;;;;;1.33;1.05;;;;;;;15.79;100.00;100925.81;4983905;28;20418;-74
2023/09/09 02:15:21;;;;;;;1.20;0.50;;;;;;;15.77;100.00;100907.28;4985067;28;20106;-76
2023/09/09 02:17:47;;;;;;;2.17;1.08;;;;;;;15.95;100.00;100919.41;4980151;28;20056;-76
2023/09/09 02:20:12;;;;;;;0.85;0.80;;;;;;;15.73;100.00;100908.25;4985758;28;20041;-75
2023/09/09 02:22:38;;;;;;;1.30;0.80;;;;;;;15.62;100.00;100884.53;4983099;28;20092;-76
2023/09/09 02:25:04;;;;;;;1.10;1.00;;;;;;;16.03;100.00;100948.41;4983924;28;20388;-76
2023/09/09 02:27:29;;;;;;;0.70;0.70;;;;;;;15.32;100.00;100835.56;4984400;28;22183;-74
2023/09/09 02:29:55;;;;;;;0.80;0.80;;;;;;;15.97;100.00;100944.09;4982797;28;20451;-76
2023/09/09 02:32:20;;;;;;;2.95;1.90;;;;;;;15.81;100.00;100934.59;4983909;28;20069;-75
2023/09/09 02:34:46;;;;;;;0.50;0.50;;;;;;;15.89;100.00;100947.72;4982321;28;20102;-75
2023/09/09 02:37:17;;;;;;;1.42;1.33;;;;;;;15.89;100.00;100945.09;4985164;28;20074;-73
2023/09/09 02:39:52;;;;;;;2.42;2.28;;;;;;;15.62;100.00;100926.00;4979264;28;20057;-74
2023/09/09 02:42:23;;;;;;;1.90;1.58;;;;;;;15.23;100.00;100854.19;4981862;28;20097;-75
2023/09/09 02:44:52;;;;;;;1.02;0.93;;;;;;;15.28;100.00;100835.63;4979870;28;20046;-74
2023/09/09 02:47:18;;;;;;;0.73;0.73;;;;;;;15.67;100.00;100932.09;4978073;28;20824;-74
2023/09/09 02:49:44;;;;;;;1.45;1.35;;;;;;;15.06;100.00;100821.81;4982364;28;20069;-74
2023/09/09 02:52:11;;;;;;;11.93;0.95;;;;;;;14.59;100.00;100744.84;4984376;28;20050;-75
2023/09/09 02:54:38;;;;;;;1.02;0.93;;;;;;;15.32;100.00;100874.34;4981092;28;20120;-75
2023/09/09 02:57:04;;;;;;;0.57;0.50;;;;;;;14.99;100.00;100826.28;4986397;28;20048;-75
2023/09/09 02:59:33;;;;;;;0.75;0.75;;;;;;;15.51;100.00;100906.75;4983614;28;20062;-75
2023/09/09 03:01:59;;;;;;;1.27;0.90;;;;;;;14.97;100.00;100823.66;4986596;28;20305;-76
2023/09/09 03:04:25;;;;;;;0.50;0.50;;;;;;;14.75;100.00;100816.88;4986425;28;20046;-74
2023/09/09 03:06:51;;;;;;;0.75;0.60;;;;;;;15.49;100.00;100930.56;4988690;28;20514;-74
2023/09/09 03:09:16;;;;;;;1.98;1.50;;;;;;;14.86;100.00;100820.25;4987156;28;20057;-74
2023/09/09 03:11:42;;;;;;;3.80;2.67;;;;;;;14.80;100.00;100803.56;4987721;28;20141;-74
2023/09/09 03:14:08;;;;;;;1.05;0.95;;;;;;;15.09;100.00;100849.06;4986967;28;20125;-74
2023/09/09 03:16:35;;;;;;;0.95;0.95;;;;;;;14.88;100.00;100817.59;4986582;28;20054;-75
2023/09/09 03:19:00;;;;;;;0.40;0.40;;;;;;;15.48;100.00;100912.06;4989046;28;20049;-75
2023/09/09 03:21:25;;;;;;;1.77;1.42;;;;;;;15.28;100.00;100907.88;4985912;28;20050;-77
2023/09/09 03:23:51;;;;;;;1.05;1.00;;;;;;;14.75;100.00;100814.22;4986414;28;20443;-76
2023/09/09 03:26:18;;;;;;;1.65;1.55;;;;;;;15.19;100.00;100902.69;4987989;28;20049;-76
2023/09/09 03:28:45;;;;;;;0.68;0.68;;;;;;;15.23;100.00;100924.69;4980403;28;20069;-76
2023/09/09 03:31:11;;;;;;;0.45;0.40;;;;;;;14.74;100.00;100817.75;4985810;28;20054;-74
2023/09/09 03:33:37;;;;;;;2.33;1.40;;;;;;;14.52;100.00;100791.53;4989006;28;20561;-76
2023/09/09 03:36:03;;;;;;;1.17;1.08;;;;;;;14.98;100.00;100849.19;4989053;28;20051;-76
2023/09/09 03:38:28;;;;;;;1.45;1.35;;;;;;;14.62;100.00;100786.19;4987369;28;20057;-74
2023/09/09 03:40:54;;;;;;;0.82;0.43;;;;;;;14.53;100.00;100787.97;4984770;28;20145;-75
2023/09/09 03:43:19;;;;;;;0.82;0.75;;;;;;;15.23;100.00;100912.34;4985191;28;20553;-74
2023/09/09 03:45:45;;;;;;;11.13;2.78;;;;;;;15.06;100.00;100879.94;4987569;28;20839;-74
2023/09/09 03:48:10;;;;;;;0.47;0.43;;;;;;;15.24;100.00;100908.81;4987624;28;20039;-75
2023/09/09 03:50:36;;;;;;;0.43;0.40;;;;;;;15.20;100.00;100907.09;4982585;28;20458;-75
2023/09/09 03:53:02;;;;;;;0.82;0.70;;;;;;;15.18;100.00;100895.66;4989836;28;20044;-74
2023/09/09 03:55:28;;;;;;;1.50;0.75;;;;;;;14.60;100.00;100823.16;4984093;28;20172;-74
2023/09/09 03:57:53;;;;;;;2.42;1.70;;;;;;;15.23;100.00;100911.47;4985972;28;20046;-75
2023/09/09 04:00:19;;;;;;;1.90;1.33;;;;;;;15.08;100.00;100879.03;4988861;28;20072;-75
2023/09/09 04:02:45;;;;;;;3.17;1.23;;;;;;;14.78;100.00;100819.47;4981724;28;20059;-75
2023/09/09 04:05:11;;;;;;;0.40;0.40;;;;;;;14.54;100.00;100789.78;4987699;28;20034;-75
2023/09/09 04:07:36;;;;;;;0.55;0.55;;;;;;;15.24;100.00;100903.53;4987673;28;20406;-76
2023/09/09 04:10:03;;;;;;;1.67;1.17;;;;;;;15.11;100.00;100883.41;4981750;28;20678;-74
2023/09/09 04:12:28;;;;;;;1.52;1.00;;;;;;;14.73;100.00;100805.44;4984207;28;20054;-75
2023/09/09 04:14:54;;;;;;;0.75;0.65;;;;;;;15.36;100.00;100899.88;4987074;28;20057;-75
2023/09/09 04:17:19;;;;;;;0.40;0.30;;;;;;;15.13;100.00;100901.00;4989108;28;20084;-75
2023/09/09 04:19:45;;;;;;;9.90;2.20;;;;;;;14.71;100.00;100807.22;4988090;28;20046;-75
2023/09/09 04:22:10;;;;;;;1.15;0.98;;;;;;;14.75;100.00;100816.88;4985870;28;20046;-75
2023/09/09 04:24:36;;;;;;;0.50;0.50;;;;;;;14.75;100.00;100817.75;4987983;28;20097;-76
2023/09/09 04:27:02;;;;;;;0.60;0.60;;;;;;;15.43;100.00;100924.44;4988528;28;20146;-75
2023/09/09 04:29:28;;;;;;;2.22;0.95;;;;;;;15.01;100.00;100815.66;4980339;28;20038;-74
2023/09/09 04:31:53;;;;;;;0.47;0.47;;;;;;;15.60;100.00;100919.84;4988616;28;20090;-75
2023/09/09 04:34:20;;;;;;;0.55;0.50;;;;;;;15.41;100.00;100883.03;4988099;28;20046;-76
2023/09/09 04:36:45;;;;;;;0.45;0.35;;;;;;;15.65;100.00;100915.38;4985512;28;20760;-76
2023/09/09 04:39:13;;;;;;;1.30;1.20;;;;;;;15.73;100.00;100921.50;4983733;28;20069;-75
2023/09/09 04:41:40;;;;;;;0.77;0.68;;;;;;;15.57;100.00;100885.50;4985311;28;20042;-75
2023/09/09 04:44:05;;;;;;;1.23;1.02;;;;;;;15.24;100.00;100823.31;4987262;28;20042;-74
2023/09/09 04:46:31;;;;;;;1.15;1.05;;;;;;;15.70;100.00;100903.00;4981026;28;20053;-75
2023/09/09 04:48:56;;;;;;;0.40;0.38;;;;;;;15.52;100.00;100884.66;4982856;28;20120;-76
2023/09/09 04:51:22;;;;;;;0.30;0.30;;;;;;;15.79;100.00;100920.53;4984284;28;20061;-75
2023/09/09 04:53:48;;;;;;;0.63;0.60;;;;;;;15.39;100.00;100842.53;4982957;28;20455;-74
2023/09/09 04:56:14;;;;;;;1.42;1.15;;;;;;;15.96;100.00;100925.56;4983839;28;20038;-76
2023/09/09 04:58:40;;;;;;;0.30;0.30;;;;;;;15.47;100.00;100810.66;4983602;28;20069;-76
2023/09/09 05:01:05;;;;;;;7.13;1.75;;;;;;;16.14;100.00;100916.50;4981683;28;20046;-73
2023/09/09 05:03:31;;;;;;;1.17;1.08;;;;;;;16.28;100.00;100916.31;4981828;28;20129;-75
2023/09/09 05:05:56;;;;;;;1.30;0.73;;;;;;;17.38;100.00;100924.97;5018188;28;20505;-75
2023/09/09 05:08:22;;;;;;;0.40;0.40;;;;;;;18.61;100.00;100929.34;4987581;28;20814;-75
2023/09/09 05:10:47;;;;;;;1.05;0.65;;;;;;;19.78;91.57;100919.09;4986983;28;20073;-75
2023/09/09 05:13:13;;;;;;;3.72;0.90;;;;;;;20.28;81.43;100918.47;4986854;28;20042;-74
2023/09/09 05:15:38;;;;;;;0.88;0.77;;;;;;;21.19;73.06;100919.84;4986354;28;20038;-74
2023/09/09 05:18:04;;;;;;;0.85;0.60;;;;;;;21.12;67.00;100826.69;4985373;28;20566;-74
2023/09/09 05:20:30;;;;;;;2.38;2.17;;;;;;;21.80;63.15;100851.72;4980501;28;20034;-74
2023/09/09 05:22:55;;;;;;;1.05;0.82;;;;;;;21.59;61.12;100816.91;4986255;28;20085;-74
2023/09/09 05:25:21;;;;;;;1.30;1.20;;;;;;;22.17;58.32;100807.44;4986383;28;20057;-75
2023/09/09 05:27:46;;;;;;;0.60;0.60;;;;;;;22.66;56.42;100843.69;4986148;28;20126;-77
2023/09/09 05:30:12;;;;;;;1.85;1.52;;;;;;;22.34;56.53;100832.59;4984635;28;20557;-74
2023/09/09 05:32:38;;;;;;;1.27;1.00;;;;;;;22.63;56.60;100928.59;4985912;28;20112;-76
2023/09/09 05:35:10;;;;;;;2.58;2.10;;;;;;;23.23;55.58;100894.78;4978222;28;20156;-76
2023/09/09 05:37:36;;;;;;;0.77;0.77;;;;;;;24.03;53.19;100920.56;4983486;28;20050;-74
2023/09/09 05:40:02;;;;;;;1.15;0.57;;;;;;;23.80;51.93;100839.44;4985194;28;20506;-75
2023/09/09 05:42:28;;;;;;;0.73;0.73;;;;;;;24.62;50.64;100908.72;4966621;28;20068;-74
2023/09/09 05:44:56;;;;;;;8.30;2.17;;;;;;;24.84;50.35;100903.16;4983765;28;20050;-76
2023/09/09 05:47:22;;;;;;;10.65;1.45;;;;;;;25.07;49.71;100906.44;4985693;28;20480;-76
2023/09/09 05:49:47;;;;;;;1.50;1.15;;;;;;;24.93;49.33;100855.28;4985518;28;20833;-76
2023/09/09 05:52:16;;;;;;;6.03;0.88;;;;;;;25.28;48.57;100902.63;4985743;28;20498;-75
2023/09/09 05:54:42;;;;;;;0.25;0.17;;;;;;;24.96;47.40;100834.50;4983679;28;20054;-75
2023/09/09 05:57:08;;;;;;;0.80;0.80;;;;;;;25.29;46.94;100914.28;4981380;28;20093;-74
2023/09/09 05:59:34;;;;;;;1.42;1.33;;;;;;;25.22;46.52;100902.13;4981832;28;20050;-76
2023/09/09 06:02:08;;;;;;;1.48;0.98;;;;;;;24.89;46.73;100923.50;4984446;28;20059;-76
2023/09/09 06:04:33;;;;;;;0.57;0.50;;;;;;;25.22;46.60;100910.19;4980935;28;20054;-76
2023/09/09 06:06:59;;;;;;;1.48;1.38;;;;;;;24.46;47.54;100853.22;4977728;28;20081;-75
2023/09/09 06:09:24;;;;;;;0.70;0.68;;;;;;;24.76;47.19;100901.78;4979035;28;20455;-75
2023/09/09 06:11:50;;;;;;;0.28;0.28;;;;;;;23.93;48.39;100838.88;4979496;28;20053;-77
2023/09/09 06:14:19;;;;;;;0.20;0.20;;;;;;;24.06;49.07;100909.69;5001715;28;20034;-76
2023/09/09 06:16:45;;;;;;;0.35;0.35;;;;;;;23.44;49.50;100839.38;4980239;28;20042;-76
2023/09/09 06:19:10;;;;;;;1.85;1.45;;;;;;;23.63;49.40;100884.91;4983495;28;20046;-75
2023/09/09 06:21:36;;;;;;;2.30;1.80;;;;;;;23.50;50.31;100911.38;4982294;28;20055;-74
2023/09/09 06:24:02;;;;;;;0.63;0.28;;;;;;;23.13;50.78;100909.50;4984174;28;20363;-74
2023/09/09 06:26:33;;;;;;;0.30;0.30;;;;;;;23.11;50.71;100892.66;4982906;28;20122;-76
2023/09/09 06:28:59;;;;;;;0.75;0.50;;;;;;;23.07;50.08;100923.16;4980924;28;20031;-75
2023/09/09 06:31:25;;;;;;;1.55;0.68;;;;;;;22.40;50.78;100852.84;4975538;28;20065;-76
2023/09/09 06:33:50;;;;;;;0.50;0.50;;;;;;;22.23;50.54;100847.34;4973147;28;20055;-79
2023/09/09 06:36:20;;;;;;;0.77;0.77;;;;;;;22.03;52.10;100850.78;4967258;28;20124;-75
2023/09/09 06:38:46;;;;;;;1.08;0.93;;;;;;;22.28;51.76;100850.69;4974124;28;20046;-76
2023/09/09 06:41:13;;;;;;;0.35;0.35;;;;;;;21.85;52.34;100900.50;4974321;28;20046;-75
2023/09/09 06:43:39;;;;;;;0.50;0.50;;;;;;;22.19;52.89;100953.47;4980827;28;20054;-75
2023/09/09 06:46:04;;;;;;;0.85;0.52;;;;;;;22.00;54.09;100923.06;4975101;28;20042;-75
2023/09/09 06:48:30;;;;;;;0.47;0.40;;;;;;;22.12;54.01;100935.94;4977065;28;20043;-75
2023/09/09 06:50:56;;;;;;;0.22;0.22;;;;;;;22.29;53.65;100940.69;4980071;28;20042;-75
2023/09/09 06:53:22;;;;;;;1.65;1.27;;;;;;;21.91;52.72;100860.16;4980095;28;20462;-75
2023/09/09 06:55:47;;;;;;;0.40;0.40;;;;;;;22.21;53.26;100946.31;4980883;28;20046;-75
2023/09/09 06:58:13;;;;;;;1.52;0.98;;;;;;;22.29;53.05;100948.69;4977064;28;20120;-74
2023/09/09 07:00:39;;;;;;;1.10;1.00;;;;;;;21.97;52.04;100889.31;4977106;28;20049;-75
2023/09/09 07:03:07;;;;;;;1.73;1.63;;;;;;;21.93;53.55;100859.16;4982158;28;20426;-76
2023/09/09 07:05:32;;;;;;;0.15;0.15;;;;;;;21.96;54.79;100870.66;4980171;28;20034;-76
2023/09/09 07:07:58;;;;;;;0.57;0.57;;;;;;;21.98;57.18;100858.13;4978529;28;20034;-79
2023/09/09 07:10:24;;;;;;;1.58;1.38;;;;;;;22.55;52.55;100951.16;4976904;28;20530;-78
2023/09/09 07:12:49;;;;;;;1.10;0.98;;;;;;;21.87;51.95;100954.75;4977879;28;20058;-77
2023/09/09 07:15:16;;;;;;;0.82;0.60;;;;;;;21.60;52.08;100871.19;4989680;28;20452;-76
2023/09/09 07:17:46;;;;;;;1.25;0.65;;;;;;;22.08;51.14;100955.72;4980560;28;20418;-77
2023/09/09 07:20:11;;;;;;;1.55;1.38;;;;;;;21.80;52.34;100870.44;4983826;28;20435;-77
2023/09/09 07:22:37;;;;;;;3.40;1.95;;;;;;;23.02;54.47;100935.88;4979590;28;20054;-77
2023/09/09 07:25:03;;;;;;;0.40;0.20;;;;;;;23.42;54.24;100955.56;4979464;28;20731;-75
2023/09/09 07:27:28;;;;;;;0.50;0.50;;;;;;;23.48;51.97;100942.72;4986711;28;20046;-79
2023/09/09 07:29:54;;;;;;;1.23;0.95;;;;;;;23.83;52.78;100948.31;4976021;28;20137;-78
2023/09/09 07:32:20;;;;;;;0.50;0.30;;;;;;;23.14;48.61;100949.59;4975997;28;20030;-75
2023/09/09 07:34:45;;;;;;;1.23;0.60;;;;;;;23.08;48.25;100908.84;4981880;28;20045;-77
2023/09/09 07:37:11;;;;;;;2.58;0.88;;;;;;;22.73;45.66;100855.91;4983844;28;20053;-77
2023/09/09 07:40:06;;;;;;;0.28;0.28;;;;;;;23.75;49.45;100946.00;4983373;28;20383;-77
2023/09/09 07:42:32;;;;;;;4.43;2.67;;;;;;;23.16;49.55;100861.19;4978525;28;20120;-76
2023/09/09 07:44:57;;;;;;;0.10;0.10;;;;;;;23.56;47.62;100948.63;4982955;28;20042;-77
2023/09/09 07:47:23;;;;;;;0.10;0.10;;;;;;;23.01;45.11;100856.50;4985272;28;20510;-74
2023/09/09 07:49:49;;;;;;;0.95;0.93;;;;;;;23.53;48.17;100911.25;4980966;28;20039;-77
2023/09/09 07:52:15;;;;;;;0.25;0.25;;;;;;;23.79;47.82;100927.97;4983366;28;20140;-75
2023/09/09 07:54:40;;;;;;;0.10;0.10;;;;;;;24.13;47.97;100934.41;4978337;28;20059;-76
2023/09/09 07:57:06;;;;;;;1.38;1.05;;;;;;;24.05;47.55;100924.06;4980948;28;20042;-77
2023/09/09 07:59:32;;;;;;;0.57;0.30;;;;;;;23.55;42.50;100913.84;4983633;28;20054;-78
2023/09/09 08:01:57;;;;;;;0.57;0.57;;;;;;;23.83;43.62;100920.66;4981355;28;20042;-76
2023/09/09 08:04:24;;;;;;;1.38;1.27;;;;;;;23.30;43.15;100858.75;4977961;28;20074;-75
2023/09/09 08:06:52;;;;;;;2.75;1.20;;;;;;;23.92;44.61;100925.56;4981481;28;20497;-74
2023/09/09 08:09:19;;;;;;;0.77;0.77;;;;;;;22.90;43.48;100819.50;4984248;28;20065;-76
2023/09/09 08:11:45;;;;;;;0.55;0.55;;;;;;;23.18;41.23;100813.78;4978949;28;20047;-75
2023/09/09 08:14:10;;;;;;;0.73;0.73;;;;;;;23.86;44.65;100899.94;4981454;28;20514;-76
2023/09/09 08:16:36;;;;;;;0.20;0.20;;;;;;;23.73;44.00;100899.59;4978636;28;20081;-76
2023/09/09 08:19:01;;;;;;;0.30;0.30;;;;;;;23.48;40.88;100853.47;4983098;28;20054;-77
2023/09/09 08:21:27;;;;;;;0.20;0.20;;;;;;;24.20;42.79;100920.63;4984240;28;20442;-74
2023/09/09 08:23:53;;;;;;;0.40;0.40;;;;;;;24.45;42.89;100919.41;4981545;28;20081;-75
2023/09/09 08:26:19;;;;;;;0.85;0.85;;;;;;;23.57;41.88;100836.97;4992002;28;20043;-78
2023/09/09 08:28:44;;;;;;;0.32;0.32;;;;;;;24.56;43.40;100909.06;5015360;28;20038;-80
2023/09/09 08:31:11;;;;;;;0.30;0.30;;;;;;;23.72;39.24;100838.91;4993790;28;20045;-80
2023/09/09 08:33:36;;;;;;;0.10;0.10;;;;;;;24.17;39.20;100912.72;4988706;28;20136;-78
2023/09/09 08:36:03;;;;;;;0.52;0.52;;;;;;;23.50;39.27;100839.06;4986100;28;20046;-79
2023/09/09 08:38:30;;;;;;;0.30;0.30;;;;;;;24.07;42.82;100838.16;4983773;28;20532;-76
2023/09/09 08:41:04;;;;;;;0.17;0.17;;;;;;;24.70;40.94;100905.69;4994240;28;20051;-76
2023/09/09 08:43:51;;;;;;;0.20;0.20;;;;;;;24.59;38.98;100905.34;4982161;28;20050;-84
2023/09/09 08:46:19;;;;;;;1.55;0.90;;;;;;;24.70;41.34;100884.19;4983158;28;20058;-80
2023/09/09 08:48:48;;;;;;;0.20;0.20;;;;;;;24.64;40.88;100908.66;4993802;28;20061;-76
2023/09/09 08:51:16;;;;;;;0.40;0.40;;;;;;;24.44;37.92;100898.88;4976677;28;20061;-77
2023/09/09 08:53:43;;;;;;;0.30;0.30;;;;;;;24.06;37.51;100805.13;4983170;28;20038;-75
2023/09/09 08:56:12;;;;;;;1.52;1.08;;;;;;;24.68;40.40;100853.00;4983557;28;20073;-75
2023/09/09 08:58:37;;;;;;;0.32;0.30;;;;;;;24.63;39.69;100870.22;4979250;28;20050;-76
2023/09/09 09:01:04;;;;;;;0.65;0.43;;;;;;;24.83;37.75;100879.06;4978771;28;20632;-78
2023/09/09 09:03:31;;;;;;;0.90;0.70;;;;;;;24.15;37.58;100791.25;4987690;28;20050;-83
2023/09/09 09:05:58;;;;;;;0.47;0.47;;;;;;;24.80;39.76;100888.13;4979961;28;20056;-83
2023/09/09 09:08:23;;;;;;;1.55;1.30;;;;;;;24.98;38.60;100893.47;4984342;28;20034;-74
2023/09/09 09:10:50;;;;;;;0.10;0.10;;;;;;;24.81;37.11;100897.91;4982453;28;20136;-77
2023/09/09 09:13:15;;;;;;;0.10;0.10;;;;;;;24.82;37.48;100869.28;4982910;28;20050;-76
2023/09/09 09:15:42;;;;;;;0.20;0.20;;;;;;;24.36;37.03;100791.97;5015463;28;20051;-77
2023/09/09 09:18:08;;;;;;;0.65;0.65;;;;;;;24.53;37.13;100785.75;4973718;28;20056;-77
2023/09/09 09:20:35;;;;;;;2.33;1.35;;;;;;;24.95;36.88;100889.16;4984875;28;20494;-77
2023/09/09 09:23:03;;;;;;;0.10;0.10;;;;;;;25.07;36.33;100895.69;5014607;28;20034;-77
2023/09/09 09:25:35;;;;;;;0.60;0.43;;;;;;;25.11;37.19;100866.88;4983630;28;20065;-77
2023/09/09 09:28:02;;;;;;;0.15;0.15;;;;;;;24.66;36.65;100785.13;4983512;28;20038;-76
2023/09/09 09:30:29;;;;;;;0.55;0.55;;;;;;;25.33;37.21;100888.94;4983073;28;20064;-78
2023/09/09 09:32:55;;;;;;;6.75;0.45;;;;;;;25.09;35.75;100879.50;4984979;28;20050;-75
2023/09/09 09:35:26;;;;;;;0.10;0.10;;;;;;;25.16;36.15;100867.47;4978981;28;20038;-76
2023/09/09 09:38:14;;;;;;;0.75;0.75;;;;;;;25.36;36.17;100878.06;4984733;28;20118;-76
2023/09/09 09:40:40;;;;;;;1.75;0.80;;;;;;;25.17;36.28;100821.75;4980990;28;20042;-77
2023/09/09 09:43:17;;;;;;;1.00;0.77;;;;;;;25.52;35.97;100870.03;4981438;28;20065;-76
2023/09/09 09:45:43;;;;;;;0.40;0.38;;;;;;;25.26;35.91;100807.84;4983636;28;20038;-76
2023/09/09 09:48:08;;;;;;;0.52;0.43;;;;;;;25.08;35.75;100786.47;4987545;28;20050;-76
2023/09/09 09:50:35;;;;;;;0.10;0.10;;;;;;;25.51;35.31;100868.28;4984215;28;20053;-76
2023/09/09 09:53:02;;;;;;;2.17;1.33;;;;;;;25.65;36.46;100865.69;4978022;28;20655;-77
2023/09/09 09:55:28;;;;;;;0.40;0.40;;;;;;;25.52;35.28;100855.72;4985559;28;20058;-76
2023/09/09 09:57:56;;;;;;;0.20;0.20;;;;;;;25.17;34.91;100776.09;4985547;28;20054;-78
2023/09/09 10:00:26;;;;;;;0.20;0.20;;;;;;;25.64;35.67;100818.28;4983746;28;20050;-76
2023/09/09 10:02:56;;;;;;;0.10;0.10;;;;;;;25.51;35.20;100786.81;4983107;28;20654;-76
2023/09/09 10:05:28;;;;;;;0.20;0.20;;;;;;;25.45;35.06;100748.56;4984328;28;20050;-76
2023/09/09 10:08:02;;;;;;;0.25;0.25;;;;;;;25.54;35.15;100757.91;4986034;28;20752;-77
2023/09/09 10:10:31;;;;;;;0.13;0.13;;;;;;;25.96;35.21;100804.81;4979263;28;20126;-76
2023/09/09 10:13:17;;;;;;;0.50;0.50;;;;;;;26.06;34.52;100850.91;4984818;28;20043;-76
2023/09/09 10:15:44;;;;;;;0.50;0.50;;;;;;;26.43;34.49;100840.66;4981091;28;20046;-78
2023/09/09 10:18:12;;;;;;;0.25;0.25;;;;;;;26.00;34.60;100746.38;4985901;28;20035;-77
2023/09/09 10:20:39;;;;;;;0.50;0.50;;;;;;;26.16;34.66;100749.00;4978298;28;20034;-77
2023/09/09 10:23:05;;;;;;;0.40;0.40;;;;;;;26.40;35.11;100824.69;4981092;28;20045;-77
2023/09/09 10:25:32;;;;;;;0.20;0.20;;;;;;;26.47;33.94;100810.78;4985680;28;20042;-78
2023/09/09 10:27:58;;;;;;;0.30;0.30;;;;;;;26.57;34.21;100811.13;4985646;28;20060;-76
2023/09/09 10:30:25;;;;;;;0.55;0.55;;;;;;;27.02;34.24;100789.53;4982609;28;20042;-77
2023/09/09 10:32:53;;;;;;;0.68;0.68;;;;;;;27.85;34.06;100795.91;4985271;28;20046;-75
2023/09/09 10:35:20;;;;;;;0.17;0.17;;;;;;;27.49;33.54;100700.28;4986280;28;20045;-76
2023/09/09 10:37:46;;;;;;;0.10;0.10;;;;;;;28.11;33.18;100742.03;4982187;28;20070;-76
2023/09/09 10:40:13;;;;;;;0.77;0.77;;;;;;;28.67;32.91;100825.50;4981032;28;20049;-75
2023/09/09 10:42:41;;;;;;;0.13;0.13;;;;;;;28.57;32.04;100737.03;4982547;28;20102;-75
2023/09/09 10:45:25;;;;;;;0.52;0.52;;;;;;;29.36;32.10;100821.53;4982344;28;20041;-76
2023/09/09 10:48:00;;;;;;;0.80;0.52;;;;;;;29.51;32.05;100821.38;4981900;28;20058;-77
2023/09/09 10:50:44;;;;;;;0.20;0.20;;;;;;;29.69;31.69;100811.06;4977862;28;20041;-77
2023/09/09 10:53:25;;;;;;;0.57;0.50;;;;;;;29.57;31.63;100797.47;4983145;28;20033;-78
2023/09/09 10:55:55;;;;;;;0.20;0.20;;;;;;;29.23;31.38;100808.00;4979365;28;20072;-77
2023/09/09 10:58:31;;;;;;;0.55;0.55;;;;;;;28.73;31.79;100771.94;4992392;28;20146;-78
2023/09/09 11:00:57;;;;;;;0.32;0.32;;;;;;;28.11;32.54;100728.53;4971365;28;20639;-78
2023/09/09 11:03:27;;;;;;;0.20;0.20;;;;;;;27.98;32.38;100774.38;4979112;28;20069;-78
2023/09/09 11:05:59;;;;;;;0.28;0.28;;;;;;;28.68;32.30;100793.00;4976399;28;20502;-75
2023/09/09 11:08:36;;;;;;;0.52;0.52;;;;;;;28.43;32.90;100761.41;4982202;28;20045;-76
2023/09/09 11:11:15;;;;;;;1.00;0.82;;;;;;;28.65;32.28;100760.78;4974322;28;20035;-76
2023/09/09 11:13:51;;;;;;;0.98;0.98;;;;;;;27.97;32.14;100707.88;4971274;28;20158;-78
2023/09/09 11:16:37;;;;;;;0.88;0.52;;;;;;;27.99;32.11;100757.22;4984043;28;20512;-77
2023/09/09 11:19:11;;;;;;;0.63;0.60;;;;;;;28.69;32.51;100767.72;4988145;28;20510;-76
2023/09/09 11:21:52;;;;;;;0.20;0.20;;;;;;;28.15;32.34;100784.03;4982929;28;20578;-78